createdAt,value
2017-09-24T00:01:27.879Z,10.10
2017-09-24T00:03:55.420Z,10.20
2017-09-24T00:06:23.754Z,10.00
2017-09-24T00:08:51.295Z,9.90
2017-09-24T00:11:18.827Z,9.80
2017-09-24T00:13:46.386Z,9.60
2017-09-24T00:16:13.928Z,9.60
2017-09-24T00:18:42.256Z,9.50
2017-09-24T00:21:09.794Z,9.50
2017-09-24T00:23:37.364Z,9.60
2017-09-24T00:26:04.893Z,9.60
2017-09-24T00:28:33.220Z,9.60
2017-09-24T00:31:00.760Z,9.60
2017-09-24T00:33:28.315Z,9.50
2017-09-24T00:35:55.854Z,9.50
2017-09-24T00:38:23.424Z,9.50
2017-09-24T00:40:50.955Z,9.40
2017-09-24T00:43:19.296Z,9.20
2017-09-24T00:45:46.823Z,9.20
2017-09-24T00:48:14.388Z,9.20
2017-09-24T00:50:41.940Z,9.40
2017-09-24T00:53:09.959Z,9.60
2017-09-24T00:55:37.507Z,9.80
2017-09-24T00:58:05.068Z,9.80
2017-09-24T01:00:32.606Z,9.60
2017-09-24T01:03:00.169Z,9.50
2017-09-24T01:05:27.711Z,9.30
2017-09-24T01:07:55.277Z,9.30
2017-09-24T01:10:22.810Z,9.30
2017-09-24T01:12:51.155Z,9.50
2017-09-24T01:15:18.690Z,9.40
2017-09-24T01:17:46.231Z,9.40
2017-09-24T01:20:13.786Z,9.30
2017-09-24T01:22:41.315Z,9.30
2017-09-24T01:25:09.666Z,9.30
2017-09-24T01:27:37.212Z,9.30
2017-09-24T01:30:04.775Z,9.30
2017-09-24T01:32:32.310Z,9.30
2017-09-24T01:35:00.188Z,9.20
2017-09-24T01:37:27.719Z,9.20
2017-09-24T01:39:56.106Z,9.20
2017-09-24T01:42:23.639Z,9.20
2017-09-24T01:44:51.972Z,9.30
2017-09-24T01:47:19.540Z,9.30
2017-09-24T01:49:48.816Z,9.60
2017-09-24T01:52:16.379Z,9.70
2017-09-24T01:54:43.935Z,9.70
2017-09-24T01:57:11.479Z,9.60
2017-09-24T01:59:39.046Z,9.60
2017-09-24T02:02:06.578Z,9.70
2017-09-24T02:04:34.140Z,9.60
2017-09-24T02:07:02.450Z,9.40
2017-09-24T02:09:30.014Z,9.40
2017-09-24T02:11:57.555Z,9.30
2017-09-24T02:14:25.144Z,9.30
2017-09-24T02:16:52.683Z,9.40
2017-09-24T02:19:20.222Z,9.60
2017-09-24T02:21:48.546Z,9.70
2017-09-24T02:24:16.084Z,9.70
2017-09-24T02:26:43.647Z,9.70
2017-09-24T02:29:11.175Z,9.70
2017-09-24T02:31:39.518Z,9.60
2017-09-24T02:34:07.051Z,9.60
2017-09-24T02:36:34.612Z,9.50
2017-09-24T02:39:02.151Z,9.30
2017-09-24T02:41:29.724Z,9.20
2017-09-24T02:43:57.248Z,9.00
2017-09-24T02:46:25.569Z,8.70
2017-09-24T02:48:53.107Z,8.70
2017-09-24T02:51:20.671Z,8.70
2017-09-24T02:53:48.212Z,8.70
2017-09-24T02:56:16.550Z,8.60
2017-09-24T02:58:44.090Z,8.50
2017-09-24T03:01:11.656Z,8.50
2017-09-24T03:03:39.186Z,8.50
2017-09-24T03:06:06.747Z,8.40
2017-09-24T03:08:34.283Z,8.40
2017-09-24T03:11:02.610Z,8.50
2017-09-24T03:13:30.151Z,8.40
2017-09-24T03:15:57.696Z,8.50
2017-09-24T03:18:25.265Z,8.40
2017-09-24T03:20:52.815Z,8.40
2017-09-24T03:23:20.379Z,8.30
2017-09-24T03:31:50.398Z,8.50
2017-09-24T03:34:17.931Z,8.40
2017-09-24T03:36:45.499Z,8.40
2017-09-24T03:39:13.039Z,8.40
2017-09-24T03:41:40.607Z,8.30
2017-09-24T03:44:08.143Z,8.30
2017-09-24T03:46:35.679Z,8.30
2017-09-24T03:49:04.008Z,8.40
2017-09-24T03:51:31.539Z,8.30
2017-09-24T03:53:59.104Z,8.30
2017-09-24T03:56:26.643Z,8.20
2017-09-24T03:58:54.973Z,8.10
2017-09-24T04:01:22.498Z,8.10
2017-09-24T04:03:50.065Z,8.00
2017-09-24T04:06:17.604Z,8.10
2017-09-24T04:08:45.172Z,8.10
2017-09-24T04:11:12.715Z,8.10
2017-09-24T04:13:41.038Z,8.00
2017-09-24T04:16:09.587Z,8.00
2017-09-24T04:18:37.147Z,8.00
2017-09-24T04:21:04.686Z,8.00
2017-09-24T04:23:33.014Z,8.00
2017-09-24T04:26:00.554Z,8.00
2017-09-24T04:28:28.115Z,8.00
2017-09-24T04:30:55.656Z,7.90
2017-09-24T04:33:23.985Z,7.90
2017-09-24T04:35:51.530Z,7.90
2017-09-24T04:38:19.098Z,8.00
2017-09-24T04:40:46.634Z,8.00
2017-09-24T04:43:14.210Z,8.10
2017-09-24T04:45:41.748Z,8.10
2017-09-24T04:48:09.291Z,8.10
2017-09-24T04:50:37.618Z,7.90
2017-09-24T04:53:05.165Z,7.90
2017-09-24T04:55:32.724Z,7.80
2017-09-24T04:58:00.262Z,7.90
2017-09-24T05:00:27.823Z,7.80
2017-09-24T05:02:55.363Z,7.80
2017-09-24T05:05:23.686Z,7.80
2017-09-24T05:07:51.216Z,7.80
2017-09-24T05:10:18.778Z,7.90
2017-09-24T05:12:46.311Z,8.00
2017-09-24T05:15:14.632Z,7.90
2017-09-24T05:17:42.169Z,7.90
2017-09-24T05:20:09.740Z,8.00
2017-09-24T05:22:37.276Z,8.00
2017-09-24T05:25:05.610Z,8.00
2017-09-24T05:27:33.154Z,8.00
2017-09-24T05:30:00.714Z,8.10
2017-09-24T05:32:28.250Z,8.00
2017-09-24T05:34:55.807Z,8.00
2017-09-24T05:37:23.348Z,7.90
2017-09-24T05:39:51.682Z,7.80
2017-09-24T05:42:19.219Z,7.70
2017-09-24T05:44:46.791Z,7.70
2017-09-24T05:47:14.326Z,7.80
2017-09-24T05:49:41.858Z,7.90
2017-09-24T05:52:10.196Z,8.10
2017-09-24T05:54:37.735Z,8.00
2017-09-24T05:57:05.299Z,8.00
2017-09-24T05:59:32.842Z,7.90
2017-09-24T06:02:00.406Z,7.90
2017-09-24T06:04:27.948Z,7.80
2017-09-24T06:06:56.279Z,7.80
2017-09-24T06:09:23.817Z,7.80
2017-09-24T06:11:51.380Z,7.90
2017-09-24T06:14:18.919Z,7.90
2017-09-24T06:16:46.475Z,7.90
2017-09-24T06:19:14.012Z,7.90
2017-09-24T06:21:42.347Z,7.90
2017-09-24T06:24:09.879Z,7.90
2017-09-24T06:26:37.439Z,7.90
2017-09-24T06:29:04.976Z,8.00
2017-09-24T06:31:33.310Z,8.00
2017-09-24T06:34:00.843Z,8.00
2017-09-24T06:36:28.403Z,8.00
2017-09-24T06:38:55.945Z,8.10
2017-09-24T06:41:23.510Z,8.20
2017-09-24T06:43:51.044Z,8.30
2017-09-24T06:46:18.614Z,8.30
2017-09-24T06:48:46.920Z,8.50
2017-09-24T06:51:14.456Z,8.50
2017-09-24T06:53:42.782Z,8.60
2017-09-24T06:56:10.319Z,8.60
2017-09-24T06:58:37.880Z,8.60
2017-09-24T07:01:05.423Z,8.70
2017-09-24T07:03:32.987Z,8.80
2017-09-24T07:06:00.523Z,8.80
2017-09-24T07:08:28.851Z,8.90
2017-09-24T07:10:56.396Z,8.90
2017-09-24T07:13:23.955Z,9.00
2017-09-24T07:15:58.319Z,9.00
2017-09-24T07:18:25.883Z,9.10
2017-09-24T07:20:53.418Z,9.10
2017-09-24T07:23:20.966Z,9.10
2017-09-24T07:25:48.500Z,9.20
2017-09-24T07:28:16.069Z,9.20
2017-09-24T07:30:43.607Z,9.30
2017-09-24T07:33:11.934Z,9.40
2017-09-24T07:35:39.467Z,9.40
2017-09-24T07:38:07.022Z,9.60
2017-09-24T07:40:34.552Z,9.60
2017-09-24T07:43:02.897Z,9.90
2017-09-24T07:45:30.436Z,9.90
2017-09-24T07:47:57.994Z,10.00
2017-09-24T07:50:25.539Z,10.10
2017-09-24T07:52:53.109Z,10.10
2017-09-24T07:55:20.823Z,10.30
2017-09-24T07:57:48.372Z,10.50
2017-09-24T08:00:15.947Z,10.50
2017-09-24T08:02:43.493Z,10.70
2017-09-24T08:05:11.064Z,10.80
2017-09-24T08:07:38.603Z,11.00
2017-09-24T08:10:06.165Z,11.00
2017-09-24T08:12:33.706Z,11.10
2017-09-24T08:15:01.276Z,11.20
2017-09-24T08:17:28.813Z,11.40
2017-09-24T08:19:56.375Z,11.40
2017-09-24T08:22:23.916Z,11.50
2017-09-24T08:24:51.484Z,11.60
2017-09-24T08:27:19.026Z,11.70
2017-09-24T08:29:47.362Z,12.10
2017-09-24T08:32:14.914Z,12.00
2017-09-24T08:34:42.475Z,12.10
2017-09-24T08:37:10.015Z,12.20
2017-09-24T08:39:37.582Z,12.40
2017-09-24T08:42:05.118Z,12.50
2017-09-24T08:44:32.683Z,12.70
2017-09-24T08:47:00.218Z,12.80
2017-09-24T08:49:28.546Z,12.90
2017-09-24T08:51:56.083Z,12.90
2017-09-24T08:54:23.656Z,13.00
2017-09-24T08:56:51.199Z,13.10
2017-09-24T08:59:18.735Z,13.30
2017-09-24T09:01:47.067Z,13.50
2017-09-24T09:04:14.623Z,13.50
2017-09-24T09:06:42.183Z,13.70
2017-09-24T09:09:09.732Z,13.80
2017-09-24T09:11:37.323Z,13.90
2017-09-24T09:14:04.863Z,14.10
2017-09-24T09:16:32.423Z,14.30
2017-09-24T09:18:59.946Z,14.20
2017-09-24T09:21:39.156Z,14.30
2017-09-24T09:24:07.463Z,14.20
2017-09-24T09:26:35.015Z,14.20
2017-09-24T09:29:02.559Z,14.50
2017-09-24T09:31:30.891Z,14.90
2017-09-24T09:33:58.431Z,14.90
2017-09-24T09:36:25.995Z,15.00
2017-09-24T09:38:53.532Z,14.90
2017-09-24T09:41:21.088Z,15.20
2017-09-24T09:43:48.623Z,15.20
2017-09-24T09:46:27.976Z,15.40
2017-09-24T09:48:56.280Z,15.40
2017-09-24T09:51:23.838Z,15.40
2017-09-24T09:53:51.380Z,15.30
2017-09-24T09:56:18.946Z,15.60
2017-09-24T09:58:46.487Z,15.90
2017-09-24T10:01:14.792Z,16.10
2017-09-24T10:03:42.345Z,16.00
2017-09-24T10:06:09.887Z,16.20
2017-09-24T10:08:53.435Z,16.50
2017-09-24T10:11:20.971Z,16.50
2017-09-24T10:13:49.301Z,16.60
2017-09-24T10:16:16.831Z,16.60
2017-09-24T10:18:44.386Z,16.70
2017-09-24T10:21:11.923Z,16.70
2017-09-24T10:23:40.252Z,17.10
2017-09-24T10:26:07.790Z,17.00
2017-09-24T10:32:01.092Z,17.20
2017-09-24T10:34:28.651Z,17.00
2017-09-24T10:36:56.186Z,17.20
2017-09-24T10:39:23.743Z,17.60
2017-09-24T10:41:52.043Z,17.80
2017-09-24T10:44:19.608Z,17.80
2017-09-24T10:46:47.147Z,18.10
2017-09-24T10:49:15.205Z,18.20
2017-09-24T10:51:42.769Z,18.10
2017-09-24T10:54:11.087Z,18.50
2017-09-24T10:56:38.621Z,18.40
2017-09-24T10:59:06.186Z,18.70
2017-09-24T11:01:33.720Z,18.70
2017-09-24T11:04:02.047Z,18.80
2017-09-24T11:06:30.349Z,19.00
2017-09-24T11:08:57.907Z,19.00
2017-09-24T11:11:25.446Z,19.40
2017-09-24T11:13:53.011Z,19.30
2017-09-24T11:16:20.544Z,18.80
2017-09-24T11:18:48.128Z,18.50
2017-09-24T11:21:15.659Z,18.70
2017-09-24T11:23:43.228Z,18.50
2017-09-24T11:26:10.759Z,18.50
2017-09-24T11:28:39.061Z,18.20
2017-09-24T11:31:06.847Z,18.20
2017-09-24T11:33:34.385Z,17.80
2017-09-24T11:36:01.931Z,18.00
2017-09-24T11:38:29.459Z,17.90
2017-09-24T11:40:57.015Z,18.00
2017-09-24T11:43:24.548Z,18.10
2017-09-24T11:45:52.115Z,17.90
2017-09-24T11:48:19.638Z,18.10
2017-09-24T11:50:47.190Z,18.10
2017-09-24T11:53:14.714Z,18.50
2017-09-24T11:55:42.275Z,18.80
2017-09-24T11:58:09.799Z,18.80
2017-09-24T12:00:37.365Z,18.60
2017-09-24T12:03:04.901Z,18.80
2017-09-24T12:05:32.460Z,18.90
2017-09-24T12:07:59.996Z,19.10
2017-09-24T12:10:28.317Z,19.70
2017-09-24T12:12:55.846Z,19.70
2017-09-24T12:15:23.402Z,19.90
2017-09-24T12:17:50.931Z,19.90
2017-09-24T12:20:18.494Z,19.70
2017-09-24T12:22:46.799Z,20.20
2017-09-24T12:25:14.326Z,20.10
2017-09-24T12:27:41.879Z,19.90
2017-09-24T12:30:09.404Z,20.10
2017-09-24T12:32:36.956Z,20.10
2017-09-24T12:35:04.482Z,20.60
2017-09-24T12:37:32.802Z,21.20
2017-09-24T12:40:00.337Z,21.20
2017-09-24T12:42:27.892Z,21.30
2017-09-24T12:44:55.523Z,21.20
2017-09-24T12:47:24.420Z,21.20
2017-09-24T12:49:52.138Z,20.90
2017-09-24T12:52:19.847Z,20.80
2017-09-24T12:54:47.411Z,20.20
2017-09-24T12:57:15.825Z,20.10
2017-09-24T12:59:43.354Z,20.00
2017-09-24T13:02:11.683Z,19.90
2017-09-24T13:04:39.664Z,19.80
2017-09-24T13:07:08.018Z,19.90
2017-09-24T13:09:36.089Z,19.80
2017-09-24T13:12:04.484Z,19.70
2017-09-24T13:14:32.010Z,19.70
2017-09-24T13:16:59.569Z,19.50
2017-09-24T13:19:27.195Z,19.10
2017-09-24T13:21:54.763Z,18.90
2017-09-24T13:24:23.066Z,18.30
2017-09-24T13:26:50.595Z,18.20
2017-09-24T13:29:18.142Z,18.00
2017-09-24T13:31:45.670Z,18.10
2017-09-24T13:34:13.237Z,18.30
2017-09-24T13:36:40.887Z,18.70
2017-09-24T13:39:08.473Z,18.90
2017-09-24T13:41:36.008Z,19.00
2017-09-24T13:44:03.556Z,19.10
2017-09-24T13:46:31.099Z,19.10
2017-09-24T13:48:58.651Z,19.10
2017-09-24T13:51:26.947Z,19.10
2017-09-24T13:53:54.509Z,19.10
2017-09-24T13:56:22.040Z,19.10
2017-09-24T13:58:50.358Z,19.20
2017-09-24T14:01:17.887Z,19.20
2017-09-24T14:03:46.203Z,19.40
2017-09-24T14:06:13.734Z,19.40
2017-09-24T14:08:41.278Z,19.50
2017-09-24T14:11:09.576Z,19.90
2017-09-24T14:13:37.127Z,19.90
2017-09-24T14:16:04.670Z,20.00
2017-09-24T14:18:33.007Z,20.50
2017-09-24T14:21:00.537Z,20.40
2017-09-24T14:23:28.111Z,20.60
2017-09-24T14:25:55.641Z,20.50
2017-09-24T14:28:23.206Z,20.70
2017-09-24T14:30:50.755Z,20.60
2017-09-24T14:33:19.050Z,19.60
2017-09-24T14:35:46.602Z,19.60
2017-09-24T14:38:14.137Z,19.50
2017-09-24T14:40:42.462Z,19.50
2017-09-24T14:43:09.995Z,19.40
2017-09-24T14:45:37.547Z,19.60
2017-09-24T14:48:05.834Z,19.30
2017-09-24T14:50:33.392Z,19.30
2017-09-24T14:53:00.919Z,19.10
2017-09-24T14:55:28.464Z,19.00
2017-09-24T14:57:55.995Z,18.80
2017-09-24T15:00:23.557Z,18.70
2017-09-24T15:02:51.086Z,18.80
2017-09-24T15:05:19.399Z,18.90
2017-09-24T15:07:46.927Z,18.90
2017-09-24T15:10:15.247Z,18.70
2017-09-24T15:12:42.776Z,18.70
2017-09-24T15:15:10.327Z,18.80
2017-09-24T15:17:37.855Z,18.90
2017-09-24T15:20:05.428Z,19.10
2017-09-24T15:22:33.728Z,19.20
2017-09-24T15:25:01.259Z,19.20
2017-09-24T15:27:29.581Z,19.00
2017-09-24T15:29:57.117Z,18.90
2017-09-24T15:32:24.667Z,18.60
2017-09-24T15:34:52.964Z,18.40
2017-09-24T15:37:20.515Z,18.40
2017-09-24T15:39:48.047Z,18.40
2017-09-24T15:42:15.606Z,18.30
2017-09-24T15:44:43.910Z,18.30
2017-09-24T15:47:11.479Z,18.30
2017-09-24T15:49:39.006Z,18.10
2017-09-24T15:52:07.419Z,17.80
2017-09-24T15:54:34.951Z,17.70
2017-09-24T15:57:03.275Z,17.40
2017-09-24T15:59:30.796Z,17.40
2017-09-24T16:01:59.115Z,17.40
2017-09-24T16:04:26.652Z,17.40
2017-09-24T16:06:54.210Z,17.40
2017-09-24T16:09:21.738Z,17.30
2017-09-24T16:11:49.295Z,17.10
2017-09-24T16:14:16.828Z,17.00
2017-09-24T16:16:44.383Z,17.10
2017-09-24T16:19:11.915Z,17.30
2017-09-24T16:21:39.503Z,17.20
2017-09-24T16:24:07.043Z,17.20
2017-09-24T16:26:35.341Z,16.90
2017-09-24T16:29:02.896Z,16.90
2017-09-24T16:31:30.426Z,16.90
2017-09-24T16:33:58.007Z,16.80
2017-09-24T16:36:25.725Z,16.70
2017-09-24T16:38:54.061Z,16.70
2017-09-24T16:41:21.611Z,16.70
2017-09-24T16:43:49.180Z,16.50
2017-09-24T16:46:16.729Z,16.40
2017-09-24T16:48:44.308Z,16.30
2017-09-24T16:51:11.842Z,16.20
2017-09-24T16:53:39.391Z,16.20
2017-09-24T16:56:06.934Z,16.20
2017-09-24T16:58:34.494Z,16.20
2017-09-24T17:01:02.035Z,16.10
2017-09-24T17:03:30.367Z,16.00
2017-09-24T17:05:57.907Z,16.00
2017-09-24T17:08:25.483Z,16.00
2017-09-24T17:10:53.028Z,15.90
2017-09-24T17:13:20.582Z,15.70
2017-09-24T17:15:48.123Z,15.60
2017-09-24T17:18:16.444Z,15.50
2017-09-24T17:20:44.750Z,15.30
2017-09-24T17:23:12.316Z,15.30
2017-09-24T17:25:39.852Z,15.20
2017-09-24T17:28:07.439Z,15.10
2017-09-24T17:30:34.971Z,15.00
2017-09-24T17:33:03.268Z,14.60
2017-09-24T17:35:30.830Z,14.60
2017-09-24T17:37:58.375Z,14.40
2017-09-24T17:40:25.955Z,14.20
2017-09-24T17:42:53.495Z,14.10
2017-09-24T17:45:21.052Z,14.00
2017-09-24T17:47:48.592Z,13.80
2017-09-24T17:50:16.159Z,13.80
2017-09-24T17:52:43.723Z,13.60
2017-09-24T17:55:11.296Z,13.50
2017-09-24T17:57:38.868Z,13.40
2017-09-24T18:00:06.704Z,13.30
2017-09-24T18:02:34.239Z,13.30
2017-09-24T18:05:01.815Z,13.40
2017-09-24T18:07:29.356Z,13.50
2017-09-24T18:09:56.920Z,13.50
2017-09-24T18:12:24.461Z,13.50
2017-09-24T18:14:52.795Z,13.50
2017-09-24T18:17:20.349Z,13.50
2017-09-24T18:19:47.912Z,13.50
2017-09-24T18:22:15.456Z,13.50
2017-09-24T18:24:43.034Z,13.60
2017-09-24T18:27:10.578Z,13.70
2017-09-24T18:29:38.156Z,13.60
2017-09-24T18:32:05.705Z,13.60
2017-09-24T18:34:33.252Z,13.70
2017-09-24T18:37:00.818Z,13.70
2017-09-24T18:39:28.350Z,13.60
2017-09-24T18:41:55.918Z,13.60
2017-09-24T18:44:23.451Z,13.60
2017-09-24T18:46:52.608Z,13.60
2017-09-24T18:49:20.168Z,13.60
2017-09-24T18:51:47.764Z,13.40
2017-09-24T18:54:16.099Z,13.20
2017-09-24T18:56:43.680Z,13.20
2017-09-24T18:59:11.236Z,13.30
2017-09-24T19:01:38.826Z,13.30
2017-09-24T19:04:07.138Z,13.20
2017-09-24T19:06:34.718Z,13.20
2017-09-24T19:09:02.374Z,13.10
2017-09-24T19:11:29.938Z,13.10
2017-09-24T19:13:57.596Z,13.00
2017-09-24T19:16:25.716Z,12.90
2017-09-24T19:18:53.529Z,12.90
2017-09-24T19:21:21.367Z,13.00
2017-09-24T19:23:48.920Z,13.10
2017-09-24T19:26:17.255Z,12.90
2017-09-24T19:28:44.798Z,12.90
2017-09-24T19:31:12.371Z,12.80
2017-09-24T19:33:39.905Z,12.70
2017-09-24T19:36:07.455Z,12.40
2017-09-24T19:38:35.021Z,12.30
2017-09-24T19:41:02.571Z,12.10
2017-09-24T19:43:30.150Z,12.10
2017-09-24T19:45:57.695Z,12.00
2017-09-24T19:48:25.265Z,12.10
2017-09-24T19:50:52.807Z,12.20
2017-09-24T19:53:20.369Z,12.20
2017-09-24T19:55:47.906Z,12.40
2017-09-24T19:58:16.250Z,12.30
2017-09-24T20:00:43.787Z,12.20
2017-09-24T20:03:11.349Z,12.10
2017-09-24T20:05:38.891Z,11.90
2017-09-24T20:08:06.472Z,11.80
2017-09-24T20:10:34.012Z,11.80
2017-09-24T20:13:01.612Z,11.80
2017-09-24T20:15:29.152Z,11.70
2017-09-24T20:17:56.724Z,11.60
2017-09-24T20:20:24.266Z,11.60
2017-09-24T20:22:52.351Z,11.50
2017-09-24T20:25:20.655Z,11.60
2017-09-24T20:27:48.504Z,11.60
2017-09-24T20:30:16.060Z,11.70
2017-09-24T20:32:46.630Z,11.60
2017-09-24T20:35:14.939Z,11.40
2017-09-24T20:37:42.524Z,11.30
2017-09-24T20:40:10.073Z,11.30
2017-09-24T20:42:37.612Z,11.30
2017-09-24T20:45:05.175Z,11.20
2017-09-24T20:47:32.720Z,11.30
2017-09-24T20:50:01.048Z,11.50
2017-09-24T20:52:28.600Z,11.50
2017-09-24T20:54:56.162Z,11.60
2017-09-24T20:57:23.707Z,11.60
2017-09-24T20:59:51.276Z,11.60
2017-09-24T21:02:18.811Z,11.80
2017-09-24T21:04:46.381Z,11.70
2017-09-24T21:07:13.927Z,11.60
2017-09-24T21:09:41.491Z,11.50
2017-09-24T21:12:09.026Z,11.50
2017-09-24T21:14:37.348Z,11.60
2017-09-24T21:17:04.883Z,11.60
2017-09-24T21:19:32.444Z,11.60
2017-09-24T21:21:59.990Z,11.60
2017-09-24T21:24:27.564Z,11.50
2017-09-24T21:26:55.113Z,11.50
2017-09-24T21:29:22.688Z,11.60
2017-09-24T21:31:50.235Z,11.50
2017-09-24T21:34:17.794Z,11.50
2017-09-24T21:36:45.331Z,11.50
2017-09-24T21:39:13.638Z,11.50
2017-09-24T21:41:41.203Z,11.50
2017-09-24T21:44:08.739Z,11.60
2017-09-24T21:46:37.071Z,11.40
2017-09-24T21:49:04.609Z,11.40
2017-09-24T21:51:32.167Z,11.50
2017-09-24T21:53:59.695Z,11.60
2017-09-24T21:56:28.026Z,11.60
2017-09-24T21:58:55.570Z,11.60
2017-09-24T22:01:23.144Z,11.50
2017-09-24T22:03:50.675Z,11.50
2017-09-24T22:06:18.236Z,11.30
2017-09-24T22:08:45.768Z,11.30
2017-09-24T22:11:14.099Z,11.10
2017-09-24T22:13:41.636Z,11.10
2017-09-24T22:16:09.191Z,10.90
2017-09-24T22:18:36.733Z,11.00
2017-09-24T22:21:05.061Z,11.00
2017-09-24T22:23:32.603Z,11.00
2017-09-24T22:26:00.163Z,11.00
2017-09-24T22:28:27.694Z,10.90
2017-09-24T22:52:11.739Z,10.60
2017-09-24T22:54:39.280Z,10.50
2017-09-24T22:57:06.845Z,10.60
2017-09-24T22:59:34.378Z,10.50
2017-09-24T23:02:01.943Z,10.50
2017-09-24T23:04:29.487Z,10.40
2017-09-24T23:07:18.802Z,10.30
2017-09-24T23:09:46.343Z,10.30
2017-09-24T23:12:13.903Z,10.30
2017-09-24T23:14:41.438Z,10.40
2017-09-24T23:17:09.000Z,10.30
2017-09-24T23:19:36.545Z,10.50
2017-09-24T23:22:04.877Z,10.50
2017-09-24T23:24:32.419Z,10.50
2017-09-24T23:26:59.999Z,10.60
2017-09-24T23:29:27.547Z,10.80
2017-09-24T23:31:55.084Z,10.70
2017-09-24T23:34:22.647Z,10.60
2017-09-24T23:36:50.187Z,10.70
2017-09-24T23:39:17.761Z,10.80
2017-09-24T23:41:45.298Z,10.70
2017-09-24T23:44:13.659Z,10.80
2017-09-24T23:46:41.195Z,10.80
2017-09-24T23:49:08.764Z,10.90
2017-09-24T23:51:36.310Z,10.80
2017-09-24T23:54:24.663Z,10.90
2017-09-24T23:56:52.202Z,10.80
2017-09-24T23:59:19.763Z,10.80
